sensor_id;sensor_type;location;lat;lon;timestamp;pressure;altitude;pressure_sealevel;temperature;humidity
23318;BME280;11831;55.918;37.746;2022-07-29T00:02:06;99415.72;;;19.18;0.00
23318;BME280;11831;55.918;37.746;2022-07-29T00:04:35;99406.31;;;19.40;0.00
23318;BME280;11831;55.918;37.746;2022-07-29T00:07:02;99417.66;;;19.13;0.00
23318;BME280;11831;55.918;37.746;2022-07-29T00:09:28;99408.72;;;19.12;0.00
23318;BME280;11831;55.918;37.746;2022-07-29T00:11:55;99422.37;;;18.68;0.00
23318;BME280;11831;55.918;37.746;2022-07-29T00:14:22;99419.94;;;19.01;0.00
23318;BME280;11831;55.918;37.746;2022-07-29T00:16:48;99425.94;;;18.92;0.00
23318;BME280;11831;55.918;37.746;2022-07-29T00:19:14;99440.38;;;18.39;0.00
23318;BME280;11831;55.918;37.746;2022-07-29T00:21:41;99431.59;;;18.62;0.00
23318;BME280;11831;55.918;37.746;2022-07-29T00:24:07;99443.47;;;18.12;0.00
23318;BME280;11831;55.918;37.746;2022-07-29T00:26:33;99441.56;;;18.67;0.00
23318;BME280;11831;55.918;37.746;2022-07-29T00:29:00;99438.19;;;18.41;0.00
23318;BME280;11831;55.918;37.746;2022-07-29T00:31:26;99451.03;;;18.15;0.00
23318;BME280;11831;55.918;37.746;2022-07-29T00:33:53;99456.41;;;18.25;0.00
23318;BME280;11831;55.918;37.746;2022-07-29T00:36:19;99442.41;;;18.03;0.00
23318;BME280;11831;55.918;37.746;2022-07-29T00:38:47;99459.72;;;18.02;0.00
23318;BME280;11831;55.918;37.746;2022-07-29T00:41:13;99453.88;;;17.74;0.00
23318;BME280;11831;55.918;37.746;2022-07-29T00:43:39;99463.38;;;17.46;0.00
23318;BME280;11831;55.918;37.746;2022-07-29T00:46:06;99456.03;;;17.72;0.00
23318;BME280;11831;55.918;37.746;2022-07-29T00:48:32;99451.16;;;17.84;0.00
23318;BME280;11831;55.918;37.746;2022-07-29T00:50:59;99449.00;;;17.81;0.00
23318;BME280;11831;55.918;37.746;2022-07-29T00:53:26;99443.06;;;17.79;0.00
23318;BME280;11831;55.918;37.746;2022-07-29T00:55:53;99445.41;;;18.01;0.00
23318;BME280;11831;55.918;37.746;2022-07-29T00:58:19;99437.81;;;18.03;0.00
23318;BME280;11831;55.918;37.746;2022-07-29T01:00:45;99448.16;;;17.91;0.00
23318;BME280;11831;55.918;37.746;2022-07-29T01:03:11;99445.16;;;17.92;0.00
23318;BME280;11831;55.918;37.746;2022-07-29T01:05:38;99457.66;;;17.63;0.00
23318;BME280;11831;55.918;37.746;2022-07-29T01:08:06;99457.38;;;17.75;0.00
23318;BME280;11831;55.918;37.746;2022-07-29T01:10:32;99454.97;;;17.58;0.00
23318;BME280;11831;55.918;37.746;2022-07-29T01:12:59;99469.81;;;17.65;0.00
23318;BME280;11831;55.918;37.746;2022-07-29T01:15:27;99474.69;;;17.58;0.00
23318;BME280;11831;55.918;37.746;2022-07-29T01:18:14;99470.00;;;18.10;0.00
23318;BME280;11831;55.918;37.746;2022-07-29T01:29:08;99463.88;;;17.79;0.00
23318;BME280;11831;55.918;37.746;2022-07-29T01:31:45;99468.97;;;17.90;0.00
23318;BME280;11831;55.918;37.746;2022-07-29T01:34:35;99467.66;;;17.67;0.00
23318;BME280;11831;55.918;37.746;2022-07-29T01:39:55;99467.03;;;18.11;0.00
23318;BME280;11831;55.918;37.746;2022-07-29T01:44:50;99457.31;;;17.95;0.00
23318;BME280;11831;55.918;37.746;2022-07-29T01:47:20;99482.28;;;17.36;0.00
23318;BME280;11831;55.918;37.746;2022-07-29T01:49:50;99485.50;;;17.02;0.00
23318;BME280;11831;55.918;37.746;2022-07-29T01:52:23;99483.37;;;17.35;0.00
23318;BME280;11831;55.918;37.746;2022-07-29T01:54:52;99477.97;;;17.30;0.00
23318;BME280;11831;55.918;37.746;2022-07-29T01:57:21;99470.69;;;17.25;0.00
23318;BME280;11831;55.918;37.746;2022-07-29T01:59:49;99472.00;;;17.43;0.00
23318;BME280;11831;55.918;37.746;2022-07-29T02:02:16;99478.22;;;16.93;0.00
23318;BME280;11831;55.918;37.746;2022-07-29T02:04:44;99474.97;;;17.57;0.00
23318;BME280;11831;55.918;37.746;2022-07-29T02:07:15;99477.94;;;17.60;0.00
23318;BME280;11831;55.918;37.746;2022-07-29T02:09:42;99481.75;;;17.19;0.00
23318;BME280;11831;55.918;37.746;2022-07-29T02:12:09;99491.72;;;16.98;0.00
23318;BME280;11831;55.918;37.746;2022-07-29T02:14:38;99497.03;;;16.62;0.00
23318;BME280;11831;55.918;37.746;2022-07-29T02:17:05;99489.19;;;16.56;0.00
23318;BME280;11831;55.918;37.746;2022-07-29T02:19:32;99503.56;;;16.71;0.00
23318;BME280;11831;55.918;37.746;2022-07-29T02:21:58;99498.75;;;16.89;0.00
23318;BME280;11831;55.918;37.746;2022-07-29T02:24:25;99504.38;;;16.72;0.00
23318;BME280;11831;55.918;37.746;2022-07-29T02:26:53;99517.88;;;16.77;0.00
23318;BME280;11831;55.918;37.746;2022-07-29T02:29:21;99511.88;;;16.60;0.00
23318;BME280;11831;55.918;37.746;2022-07-29T02:31:48;99508.69;;;16.78;0.00
23318;BME280;11831;55.918;37.746;2022-07-29T02:34:16;99514.63;;;16.70;0.00
23318;BME280;11831;55.918;37.746;2022-07-29T02:36:43;99511.34;;;16.63;0.00
23318;BME280;11831;55.918;37.746;2022-07-29T02:39:12;99505.44;;;16.76;0.00
23318;BME280;11831;55.918;37.746;2022-07-29T02:44:11;99513.00;;;16.74;0.00
23318;BME280;11831;55.918;37.746;2022-07-29T02:46:41;99518.41;;;16.69;0.00
23318;BME280;11831;55.918;37.746;2022-07-29T02:49:17;99506.72;;;16.53;0.00
23318;BME280;11831;55.918;37.746;2022-07-29T02:51:45;99514.13;;;16.88;0.00
23318;BME280;11831;55.918;37.746;2022-07-29T02:54:31;99510.59;;;16.77;0.00
23318;BME280;11831;55.918;37.746;2022-07-29T02:57:02;99502.50;;;16.83;0.00
23318;BME280;11831;55.918;37.746;2022-07-29T02:59:30;99492.56;;;17.19;0.00
23318;BME280;11831;55.918;37.746;2022-07-29T03:01:59;99502.25;;;16.99;0.00
23318;BME280;11831;55.918;37.746;2022-07-29T03:04:26;99500.09;;;17.01;0.00
23318;BME280;11831;55.918;37.746;2022-07-29T03:06:54;99493.91;;;17.47;0.00
23318;BME280;11831;55.918;37.746;2022-07-29T03:09:21;99501.19;;;17.36;0.00
23318;BME280;11831;55.918;37.746;2022-07-29T03:11:49;99492.81;;;17.68;0.00
23318;BME280;11831;55.918;37.746;2022-07-29T03:14:15;99502.28;;;17.71;0.00
23318;BME280;11831;55.918;37.746;2022-07-29T03:16:42;99489.53;;;17.66;0.00
23318;BME280;11831;55.918;37.746;2022-07-29T03:19:08;99492.53;;;17.44;0.00
23318;BME280;11831;55.918;37.746;2022-07-29T03:21:34;99493.34;;;17.70;0.00
23318;BME280;11831;55.918;37.746;2022-07-29T03:24:01;99501.75;;;17.68;0.00
23318;BME280;11831;55.918;37.746;2022-07-29T03:26:27;99486.84;;;17.81;0.00
23318;BME280;11831;55.918;37.746;2022-07-29T03:28:54;99494.72;;;17.52;0.00
23318;BME280;11831;55.918;37.746;2022-07-29T03:31:20;99493.34;;;17.70;0.00
23318;BME280;11831;55.918;37.746;2022-07-29T03:33:46;99490.06;;;17.93;0.00
23318;BME280;11831;55.918;37.746;2022-07-29T03:36:13;99492.44;;;18.05;0.00
23318;BME280;11831;55.918;37.746;2022-07-29T03:38:39;99486.22;;;18.05;0.00
23318;BME280;11831;55.918;37.746;2022-07-29T03:41:07;99484.00;;;18.27;0.00
23318;BME280;11831;55.918;37.746;2022-07-29T03:43:35;99487.34;;;18.68;0.00
23318;BME280;11831;55.918;37.746;2022-07-29T03:46:03;99491.63;;;18.05;0.00
23318;BME280;11831;55.918;37.746;2022-07-29T03:48:31;99492.81;;;17.73;0.00
23318;BME280;11831;55.918;37.746;2022-07-29T03:50:58;99491.34;;;18.16;0.00
23318;BME280;11831;55.918;37.746;2022-07-29T03:53:24;99491.69;;;17.89;0.00
23318;BME280;11831;55.918;37.746;2022-07-29T03:55:52;99495.94;;;18.21;0.00
23318;BME280;11831;55.918;37.746;2022-07-29T03:58:19;99502.62;;;18.34;0.00
23318;BME280;11831;55.918;37.746;2022-07-29T04:00:46;99490.06;;;18.63;0.00
23318;BME280;11831;55.918;37.746;2022-07-29T04:03:12;99473.09;;;19.31;0.00
23318;BME280;11831;55.918;37.746;2022-07-29T04:05:39;99485.94;;;19.15;0.00
23318;BME280;11831;55.918;37.746;2022-07-29T04:08:05;99470.81;;;19.72;0.00
23318;BME280;11831;55.918;37.746;2022-07-29T04:10:31;99474.31;;;19.43;0.00
23318;BME280;11831;55.918;37.746;2022-07-29T04:12:58;99469.75;;;19.97;0.00
23318;BME280;11831;55.918;37.746;2022-07-29T04:15:25;99461.81;;;20.00;0.00
23318;BME280;11831;55.918;37.746;2022-07-29T04:17:51;99463.88;;;20.32;0.00
23318;BME280;11831;55.918;37.746;2022-07-29T04:20:17;99457.69;;;20.51;0.00
23318;BME280;11831;55.918;37.746;2022-07-29T04:22:44;99462.50;;;19.87;0.00
23318;BME280;11831;55.918;37.746;2022-07-29T04:25:10;99459.50;;;20.12;0.00
23318;BME280;11831;55.918;37.746;2022-07-29T04:27:36;99469.53;;;20.36;0.00
23318;BME280;11831;55.918;37.746;2022-07-29T04:30:22;99462.28;;;20.07;0.00
23318;BME280;11831;55.918;37.746;2022-07-29T04:32:48;99470.41;;;20.31;0.00
23318;BME280;11831;55.918;37.746;2022-07-29T04:35:14;99465.41;;;20.62;0.00
23318;BME280;11831;55.918;37.746;2022-07-29T04:37:41;99456.53;;;20.33;0.00
23318;BME280;11831;55.918;37.746;2022-07-29T04:40:07;99456.09;;;20.87;0.00
23318;BME280;11831;55.918;37.746;2022-07-29T04:42:33;99466.00;;;20.59;0.00
23318;BME280;11831;55.918;37.746;2022-07-29T04:44:59;99457.91;;;20.92;0.00
23318;BME280;11831;55.918;37.746;2022-07-29T04:47:25;99448.97;;;21.56;0.00
23318;BME280;11831;55.918;37.746;2022-07-29T04:49:51;99462.38;;;21.01;0.00
23318;BME280;11831;55.918;37.746;2022-07-29T04:52:17;99458.22;;;21.55;0.00
23318;BME280;11831;55.918;37.746;2022-07-29T04:54:43;99453.28;;;21.44;0.00
23318;BME280;11831;55.918;37.746;2022-07-29T04:57:10;99471.97;;;21.31;0.00
23318;BME280;11831;55.918;37.746;2022-07-29T04:59:36;99489.00;;;20.19;0.00
23318;BME280;11831;55.918;37.746;2022-07-29T05:02:02;99484.28;;;20.54;0.00
23318;BME280;11831;55.918;37.746;2022-07-29T05:04:28;99473.31;;;21.15;0.00
23318;BME280;11831;55.918;37.746;2022-07-29T05:06:54;99466.63;;;21.07;0.00
23318;BME280;11831;55.918;37.746;2022-07-29T05:09:20;99478.50;;;20.12;0.00
23318;BME280;11831;55.918;37.746;2022-07-29T05:11:46;99474.84;;;20.46;0.00
23318;BME280;11831;55.918;37.746;2022-07-29T05:14:12;99469.03;;;20.34;0.00
23318;BME280;11831;55.918;37.746;2022-07-29T05:16:39;99472.66;;;21.04;0.00
23318;BME280;11831;55.918;37.746;2022-07-29T05:19:06;99465.84;;;20.69;0.00
23318;BME280;11831;55.918;37.746;2022-07-29T05:21:32;99456.72;;;20.98;0.00
23318;BME280;11831;55.918;37.746;2022-07-29T05:23:58;99457.78;;;20.83;0.00
23318;BME280;11831;55.918;37.746;2022-07-29T05:26:24;99458.50;;;20.70;0.00
23318;BME280;11831;55.918;37.746;2022-07-29T05:28:50;99459.19;;;21.32;0.00
23318;BME280;11831;55.918;37.746;2022-07-29T05:31:16;99464.00;;;21.67;0.00
23318;BME280;11831;55.918;37.746;2022-07-29T05:33:43;99461.59;;;21.93;0.00
23318;BME280;11831;55.918;37.746;2022-07-29T05:36:09;99458.88;;;21.80;0.00
23318;BME280;11831;55.918;37.746;2022-07-29T05:38:35;99454.50;;;21.65;0.00
23318;BME280;11831;55.918;37.746;2022-07-29T05:41:02;99451.87;;;21.46;0.00
23318;BME280;11831;55.918;37.746;2022-07-29T05:43:29;99448.47;;;21.95;0.00
23318;BME280;11831;55.918;37.746;2022-07-29T05:45:55;99458.84;;;21.66;0.00
23318;BME280;11831;55.918;37.746;2022-07-29T05:48:22;99455.94;;;22.45;0.00
23318;BME280;11831;55.918;37.746;2022-07-29T05:50:48;99448.91;;;22.30;0.00
23318;BME280;11831;55.918;37.746;2022-07-29T05:53:14;99455.06;;;21.34;0.00
23318;BME280;11831;55.918;37.746;2022-07-29T05:55:40;99453.59;;;21.69;0.00
23318;BME280;11831;55.918;37.746;2022-07-29T05:58:06;99454.53;;;21.92;0.00
23318;BME280;11831;55.918;37.746;2022-07-29T06:00:32;99451.22;;;21.82;0.00
23318;BME280;11831;55.918;37.746;2022-07-29T06:02:58;99450.78;;;21.47;0.00
23318;BME280;11831;55.918;37.746;2022-07-29T06:05:24;99464.50;;;21.97;0.00
23318;BME280;11831;55.918;37.746;2022-07-29T06:07:50;99458.94;;;21.61;0.00
23318;BME280;11831;55.918;37.746;2022-07-29T06:10:17;99456.56;;;21.41;0.00
23318;BME280;11831;55.918;37.746;2022-07-29T06:12:43;99467.09;;;21.61;0.00
23318;BME280;11831;55.918;37.746;2022-07-29T06:15:09;99469.88;;;21.75;0.00
23318;BME280;11831;55.918;37.746;2022-07-29T06:17:35;99472.12;;;21.02;0.00
23318;BME280;11831;55.918;37.746;2022-07-29T06:20:02;99462.56;;;21.56;0.00
23318;BME280;11831;55.918;37.746;2022-07-29T06:22:29;99453.78;;;22.06;0.00
23318;BME280;11831;55.918;37.746;2022-07-29T06:24:56;99450.06;;;21.23;0.00
23318;BME280;11831;55.918;37.746;2022-07-29T06:27:22;99448.12;;;21.42;0.00
23318;BME280;11831;55.918;37.746;2022-07-29T06:29:48;99443.53;;;21.70;0.00
23318;BME280;11831;55.918;37.746;2022-07-29T06:32:14;99443.16;;;21.77;0.00
23318;BME280;11831;55.918;37.746;2022-07-29T06:34:40;99460.00;;;22.20;0.00
23318;BME280;11831;55.918;37.746;2022-07-29T06:37:06;99451.91;;;22.28;0.00
23318;BME280;11831;55.918;37.746;2022-07-29T06:39:34;99434.38;;;21.93;0.00
23318;BME280;11831;55.918;37.746;2022-07-29T06:42:00;99428.81;;;21.98;0.00
23318;BME280;11831;55.918;37.746;2022-07-29T06:44:27;99443.88;;;22.10;0.00
23318;BME280;11831;55.918;37.746;2022-07-29T06:46:53;99431.75;;;21.88;0.00
23318;BME280;11831;55.918;37.746;2022-07-29T06:49:20;99435.91;;;22.13;0.00
23318;BME280;11831;55.918;37.746;2022-07-29T06:51:46;99438.50;;;22.32;0.00
23318;BME280;11831;55.918;37.746;2022-07-29T06:54:12;99441.81;;;22.79;0.00
23318;BME280;11831;55.918;37.746;2022-07-29T06:56:38;99436.53;;;22.60;0.00
23318;BME280;11831;55.918;37.746;2022-07-29T06:59:07;99438.22;;;22.70;0.00
23318;BME280;11831;55.918;37.746;2022-07-29T07:01:37;99441.16;;;22.59;0.00
23318;BME280;11831;55.918;37.746;2022-07-29T07:04:04;99439.81;;;23.29;0.00
23318;BME280;11831;55.918;37.746;2022-07-29T07:06:30;99447.72;;;22.95;0.00
23318;BME280;11831;55.918;37.746;2022-07-29T07:08:56;99450.91;;;22.88;0.00
23318;BME280;11831;55.918;37.746;2022-07-29T07:11:22;99450.69;;;22.35;0.00
23318;BME280;11831;55.918;37.746;2022-07-29T07:13:49;99454.47;;;22.75;0.00
23318;BME280;11831;55.918;37.746;2022-07-29T07:16:15;99449.78;;;23.34;0.00
23318;BME280;11831;55.918;37.746;2022-07-29T07:18:42;99454.84;;;22.82;0.00
23318;BME280;11831;55.918;37.746;2022-07-29T07:21:08;99457.97;;;22.39;0.00
23318;BME280;11831;55.918;37.746;2022-07-29T07:23:34;99453.72;;;22.33;0.00
23318;BME280;11831;55.918;37.746;2022-07-29T07:26:00;99464.69;;;22.55;0.00
23318;BME280;11831;55.918;37.746;2022-07-29T07:28:26;99444.94;;;22.86;0.00
23318;BME280;11831;55.918;37.746;2022-07-29T07:30:52;99453.50;;;22.93;0.00
23318;BME280;11831;55.918;37.746;2022-07-29T07:33:18;99458.75;;;22.89;0.00
23318;BME280;11831;55.918;37.746;2022-07-29T07:35:45;99466.91;;;22.53;0.00
23318;BME280;11831;55.918;37.746;2022-07-29T07:38:11;99478.53;;;22.95;0.00
23318;BME280;11831;55.918;37.746;2022-07-29T07:40:37;99467.87;;;22.85;0.00
23318;BME280;11831;55.918;37.746;2022-07-29T07:43:03;99470.31;;;22.59;0.00
23318;BME280;11831;55.918;37.746;2022-07-29T07:45:30;99450.47;;;22.95;0.00
23318;BME280;11831;55.918;37.746;2022-07-29T07:47:58;99457.84;;;23.16;0.00
23318;BME280;11831;55.918;37.746;2022-07-29T07:50:24;99451.87;;;23.59;0.00
23318;BME280;11831;55.918;37.746;2022-07-29T07:52:51;99455.16;;;23.78;0.00
23318;BME280;11831;55.918;37.746;2022-07-29T07:55:18;99454.44;;;23.33;0.00
23318;BME280;11831;55.918;37.746;2022-07-29T07:57:45;99468.06;;;23.11;0.00
23318;BME280;11831;55.918;37.746;2022-07-29T08:00:12;99468.37;;;23.32;0.00
23318;BME280;11831;55.918;37.746;2022-07-29T08:02:39;99462.03;;;23.67;0.00
23318;BME280;11831;55.918;37.746;2022-07-29T08:05:08;99466.50;;;23.94;0.00
23318;BME280;11831;55.918;37.746;2022-07-29T08:07:35;99457.44;;;24.25;0.00
23318;BME280;11831;55.918;37.746;2022-07-29T08:10:01;99459.56;;;24.36;0.00
23318;BME280;11831;55.918;37.746;2022-07-29T08:12:29;99480.97;;;24.03;0.00
23318;BME280;11831;55.918;37.746;2022-07-29T08:14:55;99476.75;;;23.89;0.00
23318;BME280;11831;55.918;37.746;2022-07-29T08:17:21;99463.62;;;24.65;0.00
23318;BME280;11831;55.918;37.746;2022-07-29T08:19:48;99469.56;;;24.50;0.00
23318;BME280;11831;55.918;37.746;2022-07-29T08:22:14;99446.06;;;24.49;0.00
23318;BME280;11831;55.918;37.746;2022-07-29T08:24:40;99452.37;;;24.49;0.00
23318;BME280;11831;55.918;37.746;2022-07-29T08:27:10;99460.72;;;24.61;0.00
23318;BME280;11831;55.918;37.746;2022-07-29T08:29:36;99465.38;;;24.52;0.00
23318;BME280;11831;55.918;37.746;2022-07-29T08:32:03;99463.94;;;25.32;0.00
23318;BME280;11831;55.918;37.746;2022-07-29T08:34:29;99459.91;;;25.47;0.00
23318;BME280;11831;55.918;37.746;2022-07-29T08:36:56;99451.47;;;25.69;0.00
23318;BME280;11831;55.918;37.746;2022-07-29T08:39:22;99456.56;;;25.24;0.00
23318;BME280;11831;55.918;37.746;2022-07-29T08:41:49;99456.22;;;25.43;0.00
23318;BME280;11831;55.918;37.746;2022-07-29T08:44:17;99444.31;;;24.44;0.00
23318;BME280;11831;55.918;37.746;2022-07-29T08:46:43;99456.56;;;24.81;0.00
23318;BME280;11831;55.918;37.746;2022-07-29T08:49:09;99451.31;;;23.79;0.00
23318;BME280;11831;55.918;37.746;2022-07-29T08:51:36;99459.75;;;24.57;0.00
23318;BME280;11831;55.918;37.746;2022-07-29T08:54:05;99467.81;;;24.62;0.00
23318;BME280;11831;55.918;37.746;2022-07-29T08:56:31;99456.56;;;24.81;0.00
23318;BME280;11831;55.918;37.746;2022-07-29T08:58:57;99461.53;;;24.79;0.00
23318;BME280;11831;55.918;37.746;2022-07-29T09:01:25;99460.09;;;24.90;0.00
23318;BME280;11831;55.918;37.746;2022-07-29T09:03:56;99456.84;;;25.31;0.00
23318;BME280;11831;55.918;37.746;2022-07-29T09:06:23;99456.16;;;25.52;0.00
23318;BME280;11831;55.918;37.746;2022-07-29T09:08:52;99456.72;;;25.19;0.00
23318;BME280;11831;55.918;37.746;2022-07-29T09:11:18;99453.34;;;24.62;0.00
23318;BME280;11831;55.918;37.746;2022-07-29T09:13:44;99467.63;;;24.50;0.00
23318;BME280;11831;55.918;37.746;2022-07-29T09:16:11;99471.78;;;24.48;0.00
23318;BME280;11831;55.918;37.746;2022-07-29T09:21:04;99462.66;;;25.30;0.00
23318;BME280;11831;55.918;37.746;2022-07-29T09:24:11;99461.72;;;25.08;0.00
23318;BME280;11831;55.918;37.746;2022-07-29T09:26:42;99459.59;;;24.54;0.00
23318;BME280;11831;55.918;37.746;2022-07-29T09:29:12;99475.59;;;24.21;0.00
23318;BME280;11831;55.918;37.746;2022-07-29T09:31:39;99467.53;;;25.16;0.00
23318;BME280;11831;55.918;37.746;2022-07-29T09:34:06;99466.31;;;24.30;0.00
23318;BME280;11831;55.918;37.746;2022-07-29T09:36:39;99465.09;;;25.05;0.00
23318;BME280;11831;55.918;37.746;2022-07-29T09:39:06;99466.53;;;25.03;0.00
23318;BME280;11831;55.918;37.746;2022-07-29T09:44:11;99465.88;;;24.97;0.00
23318;BME280;11831;55.918;37.746;2022-07-29T09:46:37;99467.00;;;24.62;0.00
23318;BME280;11831;55.918;37.746;2022-07-29T09:49:10;99491.28;;;24.63;0.00
23318;BME280;11831;55.918;37.746;2022-07-29T09:51:36;99476.50;;;24.16;0.00
23318;BME280;11831;55.918;37.746;2022-07-29T09:56:48;99469.91;;;24.65;0.00
23318;BME280;11831;55.918;37.746;2022-07-29T09:59:15;99461.63;;;25.60;0.00
23318;BME280;11831;55.918;37.746;2022-07-29T10:01:41;99465.75;;;25.02;0.00
23318;BME280;11831;55.918;37.746;2022-07-29T10:04:07;99474.38;;;25.39;0.00
23318;BME280;11831;55.918;37.746;2022-07-29T10:06:34;99468.00;;;26.20;0.00
23318;BME280;11831;55.918;37.746;2022-07-29T10:09:09;99467.78;;;25.49;0.00
23318;BME280;11831;55.918;37.746;2022-07-29T10:11:36;99458.38;;;26.14;0.00
23318;BME280;11831;55.918;37.746;2022-07-29T10:14:03;99456.00;;;26.33;0.00
23318;BME280;11831;55.918;37.746;2022-07-29T10:16:30;99457.59;;;25.58;0.00
23318;BME280;11831;55.918;37.746;2022-07-29T10:18:59;99452.25;;;25.79;0.00
23318;BME280;11831;55.918;37.746;2022-07-29T10:21:27;99477.47;;;24.94;0.00
23318;BME280;11831;55.918;37.746;2022-07-29T10:23:54;99470.72;;;25.26;0.00
23318;BME280;11831;55.918;37.746;2022-07-29T10:26:20;99479.88;;;24.70;0.00
23318;BME280;11831;55.918;37.746;2022-07-29T10:28:46;99472.50;;;25.22;0.00
23318;BME280;11831;55.918;37.746;2022-07-29T10:31:19;99456.09;;;25.86;0.00
23318;BME280;11831;55.918;37.746;2022-07-29T10:44:17;99458.06;;;25.60;0.00
23318;BME280;11831;55.918;37.746;2022-07-29T10:46:44;99469.56;;;25.36;0.00
23318;BME280;11831;55.918;37.746;2022-07-29T10:49:11;99468.81;;;25.01;0.00
23318;BME280;11831;55.918;37.746;2022-07-29T10:54:17;99461.69;;;25.26;0.00
23318;BME280;11831;55.918;37.746;2022-07-29T10:56:43;99469.50;;;25.62;0.00
23318;BME280;11831;55.918;37.746;2022-07-29T11:01:52;99464.94;;;24.85;0.00
23318;BME280;11831;55.918;37.746;2022-07-29T11:09:31;99467.31;;;25.93;0.00
23318;BME280;11831;55.918;37.746;2022-07-29T11:11:57;99459.78;;;26.20;0.00
23318;BME280;11831;55.918;37.746;2022-07-29T11:17:08;99461.50;;;25.48;0.00
23318;BME280;11831;55.918;37.746;2022-07-29T11:19:34;99459.72;;;25.99;0.00
23318;BME280;11831;55.918;37.746;2022-07-29T11:22:01;99473.09;;;27.22;0.00
23318;BME280;11831;55.918;37.746;2022-07-29T11:24:28;99465.28;;;27.45;0.00
23318;BME280;11831;55.918;37.746;2022-07-29T11:32:13;99468.00;;;27.66;0.00
23318;BME280;11831;55.918;37.746;2022-07-29T11:34:41;99465.19;;;27.53;0.00
23318;BME280;11831;55.918;37.746;2022-07-29T11:39:40;99460.00;;;26.65;0.00
23318;BME280;11831;55.918;37.746;2022-07-29T11:47:24;99469.88;;;27.53;0.00
23318;BME280;11831;55.918;37.746;2022-07-29T11:49:50;99472.94;;;27.39;0.00
23318;BME280;11831;55.918;37.746;2022-07-29T11:52:17;99465.41;;;27.48;0.00
23318;BME280;11831;55.918;37.746;2022-07-29T11:54:44;99464.44;;;27.32;0.00
23318;BME280;11831;55.918;37.746;2022-07-29T11:57:11;99470.75;;;27.66;0.00
23318;BME280;11831;55.918;37.746;2022-07-29T11:59:40;99468.59;;;29.68;0.00
23318;BME280;11831;55.918;37.746;2022-07-29T12:02:09;99474.41;;;29.08;0.00
23318;BME280;11831;55.918;37.746;2022-07-29T12:04:55;99463.28;;;30.58;0.00
23318;BME280;11831;55.918;37.746;2022-07-29T12:07:27;99456.88;;;30.89;0.00
23318;BME280;11831;55.918;37.746;2022-07-29T12:09:53;99464.16;;;29.64;0.00
23318;BME280;11831;55.918;37.746;2022-07-29T12:12:20;99478.09;;;27.86;0.00
23318;BME280;11831;55.918;37.746;2022-07-29T12:14:46;99452.37;;;27.12;0.00
23318;BME280;11831;55.918;37.746;2022-07-29T12:17:28;99464.81;;;28.00;0.00
23318;BME280;11831;55.918;37.746;2022-07-29T12:19:55;99473.97;;;28.53;0.00
23318;BME280;11831;55.918;37.746;2022-07-29T12:22:26;99460.50;;;30.74;0.00
23318;BME280;11831;55.918;37.746;2022-07-29T12:24:53;99444.09;;;31.00;0.00
23318;BME280;11831;55.918;37.746;2022-07-29T12:27:19;99456.81;;;30.66;0.00
23318;BME280;11831;55.918;37.746;2022-07-29T12:29:55;99448.19;;;32.17;0.00
23318;BME280;11831;55.918;37.746;2022-07-29T12:32:22;99447.75;;;34.23;0.00
23318;BME280;11831;55.918;37.746;2022-07-29T12:34:49;99449.59;;;35.83;0.00
23318;BME280;11831;55.918;37.746;2022-07-29T12:37:16;99446.41;;;34.00;0.00
23318;BME280;11831;55.918;37.746;2022-07-29T12:39:42;99440.78;;;35.48;0.00
23318;BME280;11831;55.918;37.746;2022-07-29T12:42:14;99440.38;;;35.43;0.00
23318;BME280;11831;55.918;37.746;2022-07-29T12:44:45;99437.56;;;35.25;0.00
23318;BME280;11831;55.918;37.746;2022-07-29T12:47:12;99450.22;;;32.77;0.00
23318;BME280;11831;55.918;37.746;2022-07-29T12:49:38;99456.41;;;32.13;0.00
23318;BME280;11831;55.918;37.746;2022-07-29T12:52:24;99441.12;;;32.76;0.00
23318;BME280;11831;55.918;37.746;2022-07-29T12:54:50;99461.41;;;29.48;0.00
23318;BME280;11831;55.918;37.746;2022-07-29T12:57:16;99440.06;;;31.78;0.00
23318;BME280;11831;55.918;37.746;2022-07-29T12:59:42;99440.12;;;34.06;0.00
23318;BME280;11831;55.918;37.746;2022-07-29T13:02:20;99422.88;;;35.28;0.00
23318;BME280;11831;55.918;37.746;2022-07-29T13:04:54;99425.16;;;34.25;0.00
23318;BME280;11831;55.918;37.746;2022-07-29T13:07:28;99433.78;;;31.59;0.00
23318;BME280;11831;55.918;37.746;2022-07-29T13:12:36;99437.94;;;31.49;0.00
23318;BME280;11831;55.918;37.746;2022-07-29T13:15:12;99440.03;;;31.33;0.00
23318;BME280;11831;55.918;37.746;2022-07-29T13:17:40;99442.84;;;28.89;0.00
23318;BME280;11831;55.918;37.746;2022-07-29T13:20:09;99463.28;;;29.32;0.00
23318;BME280;11831;55.918;37.746;2022-07-29T13:22:38;99454.09;;;31.47;0.00
23318;BME280;11831;55.918;37.746;2022-07-29T13:25:04;99444.72;;;29.29;0.00
23318;BME280;11831;55.918;37.746;2022-07-29T13:27:34;99433.91;;;30.31;0.00
23318;BME280;11831;55.918;37.746;2022-07-29T13:30:03;99445.25;;;31.18;0.00
23318;BME280;11831;55.918;37.746;2022-07-29T13:32:31;99434.88;;;31.31;0.00
23318;BME280;11831;55.918;37.746;2022-07-29T13:35:01;99428.59;;;32.56;0.00
23318;BME280;11831;55.918;37.746;2022-07-29T13:37:30;99428.69;;;34.15;0.00
23318;BME280;11831;55.918;37.746;2022-07-29T13:39:58;99446.72;;;33.47;0.00
23318;BME280;11831;55.918;37.746;2022-07-29T13:42:25;99440.75;;;32.21;0.00
23318;BME280;11831;55.918;37.746;2022-07-29T13:44:52;99435.50;;;33.02;0.00
23318;BME280;11831;55.918;37.746;2022-07-29T13:47:18;99442.06;;;34.64;0.00
23318;BME280;11831;55.918;37.746;2022-07-29T13:49:44;99445.28;;;33.67;0.00
23318;BME280;11831;55.918;37.746;2022-07-29T13:52:11;99435.28;;;35.95;0.00
23318;BME280;11831;55.918;37.746;2022-07-29T13:54:37;99436.41;;;35.44;0.00
23318;BME280;11831;55.918;37.746;2022-07-29T13:57:04;99425.50;;;38.47;0.00
23318;BME280;11831;55.918;37.746;2022-07-29T13:59:30;99424.03;;;39.31;40.35
23318;BME280;11831;55.918;37.746;2022-07-29T14:01:56;99433.31;;;35.85;0.00
23318;BME280;11831;55.918;37.746;2022-07-29T14:04:23;99429.78;;;34.65;0.00
23318;BME280;11831;55.918;37.746;2022-07-29T14:06:49;99429.31;;;37.19;0.00